Time;durP1;ratioP1;P1;durP2;ratioP2;P2;SDS_P1;SDS_P2;PMS_P1;PMS_P2;Temp;Humidity;BMP_temperature;BMP_pressure;BME280_temperature;BME280_humidity;BME280_pressure;Samples;Min_cycle;Max_cycle;Signal;HPM_P1;HPM_P2
2022/03/02 00:02:00;;;;;;;32.78;18.38;;;9.00;95.70;;;;;;7354358;19;115166;-90
2022/03/02 00:04:27;;;;;;;28.83;18.20;;;8.90;95.70;;;;;;7357041;19;111842;-89
2022/03/02 00:06:54;;;;;;;32.95;18.55;;;8.90;95.80;;;;;;7353041;19;112981;-91
2022/03/02 00:09:21;;;;;;;32.20;18.65;;;8.80;95.80;;;;;;7354672;19;111426;-90
2022/03/02 00:11:48;;;;;;;36.67;18.67;;;8.80;95.80;;;;;;7355605;19;113531;-90
2022/03/02 00:14:16;;;;;;;36.17;18.85;;;8.80;95.90;;;;;;7355636;19;110402;-90
2022/03/02 00:16:43;;;;;;;33.30;19.23;;;8.70;95.90;;;;;;7354184;19;114439;-90
2022/03/02 00:19:10;;;;;;;33.67;19.05;;;8.70;95.90;;;;;;7360680;19;111770;-89
2022/03/02 00:21:37;;;;;;;34.15;18.10;;;8.60;95.90;;;;;;7354260;19;111700;-90
2022/03/02 00:24:04;;;;;;;32.75;19.55;;;8.60;95.40;;;;;;7356141;19;110726;-90
2022/03/02 00:26:32;;;;;;;33.45;20.90;;;8.40;95.30;;;;;;7354479;19;113416;-90
2022/03/02 00:29:00;;;;;;;32.15;18.80;;;8.20;95.40;;;;;;7353870;19;111102;-89
2022/03/02 00:31:28;;;;;;;31.42;18.20;;;8.00;95.70;;;;;;7354967;19;110985;-90
2022/03/02 00:33:55;;;;;;;32.80;18.92;;;7.90;95.90;;;;;;7355363;19;111864;-90
2022/03/02 00:36:22;;;;;;;33.40;18.20;;;7.80;96.00;;;;;;7344279;19;111454;-90
2022/03/02 00:38:49;;;;;;;32.05;18.38;;;7.90;96.00;;;;;;7342550;19;114877;-90
2022/03/02 00:41:16;;;;;;;31.48;18.17;;;7.90;95.80;;;;;;7353024;19;111959;-90
2022/03/02 00:43:43;;;;;;;30.67;17.98;;;7.80;95.80;;;;;;7344895;19;115106;-90
2022/03/02 00:46:11;;;;;;;32.88;17.55;;;7.80;96.10;;;;;;7346602;19;110486;-90
2022/03/02 00:48:38;;;;;;;32.28;17.50;;;7.90;96.20;;;;;;7346946;19;111634;-89
2022/03/02 00:51:05;;;;;;;30.52;17.75;;;8.00;96.10;;;;;;7344013;19;111805;-89
2022/03/02 00:53:33;;;;;;;27.88;17.23;;;8.00;95.90;;;;;;7346783;19;110241;-90
2022/03/02 00:56:00;;;;;;;29.90;16.80;;;8.00;96.00;;;;;;7345808;19;112157;-90
2022/03/02 00:58:27;;;;;;;36.38;18.33;;;8.10;96.10;;;;;;7345185;19;110683;-90
2022/03/02 01:00:54;;;;;;;34.17;17.25;;;8.10;95.90;;;;;;7345581;19;110293;-90
2022/03/02 01:03:21;;;;;;;30.48;17.60;;;8.00;95.90;;;;;;7349559;19;111547;-88
2022/03/02 01:05:48;;;;;;;33.35;17.17;;;8.10;95.90;;;;;;7346958;19;110725;-90
2022/03/02 01:08:15;;;;;;;28.73;17.27;;;8.10;95.90;;;;;;7347287;19;111648;-90
2022/03/02 01:10:42;;;;;;;31.75;17.70;;;8.10;95.70;;;;;;7344604;19;111852;-90
2022/03/02 01:13:09;;;;;;;30.98;16.05;;;8.10;95.70;;;;;;7347300;19;109838;-90
2022/03/02 01:15:36;;;;;;;26.30;16.50;;;8.10;95.50;;;;;;7344156;19;111370;-90
2022/03/02 01:18:04;;;;;;;28.92;16.75;;;8.10;95.70;;;;;;7345143;19;112018;-90
2022/03/02 01:20:31;;;;;;;27.80;15.95;;;8.10;95.40;;;;;;7347267;19;110440;-90
2022/03/02 01:22:58;;;;;;;28.77;16.77;;;8.10;95.60;;;;;;7344983;19;111466;-89
2022/03/02 01:25:25;;;;;;;28.42;16.63;;;8.00;95.60;;;;;;7350694;19;110727;-89
2022/03/02 01:27:52;;;;;;;29.73;16.20;;;8.00;95.10;;;;;;7345501;19;111529;-89
2022/03/02 01:30:20;;;;;;;34.33;15.73;;;7.70;94.90;;;;;;7344503;19;113400;-89
2022/03/02 01:32:47;;;;;;;30.00;16.15;;;7.50;95.30;;;;;;7345232;19;110545;-89
2022/03/02 01:35:15;;;;;;;28.38;16.63;;;7.40;95.40;;;;;;7346597;19;110610;-90
2022/03/02 01:37:42;;;;;;;30.33;15.48;;;7.40;95.60;;;;;;7347751;19;112138;-90
2022/03/02 01:40:10;;;;;;;26.50;15.73;;;7.50;95.70;;;;;;7346299;19;110785;-91
2022/03/02 01:42:38;;;;;;;24.88;15.02;;;7.50;95.60;;;;;;7344140;19;110347;-90
2022/03/02 01:45:08;;;;;;;27.15;15.93;;;7.60;95.40;;;;;;7351420;19;111965;-89
2022/03/02 01:47:36;;;;;;;30.55;15.95;;;7.60;95.30;;;;;;7346351;19;110413;-90
2022/03/02 01:50:10;;;;;;;28.07;16.60;;;7.60;95.40;;;;;;7347036;19;112602;-90
2022/03/02 01:52:37;;;;;;;27.88;16.05;;;7.60;95.30;;;;;;7342414;19;110744;-90
2022/03/02 01:55:06;;;;;;;31.42;18.20;;;7.60;95.40;;;;;;7344460;19;111615;-90
2022/03/02 01:57:33;;;;;;;29.85;17.45;;;7.60;95.30;;;;;;7343540;19;112194;-90
2022/03/02 02:00:03;;;;;;;27.08;16.88;;;7.50;95.40;;;;;;7341453;19;111727;-89
2022/03/02 02:02:30;;;;;;;33.00;17.43;;;7.50;95.50;;;;;;7344235;19;111667;-90
2022/03/02 02:04:58;;;;;;;33.90;18.00;;;7.40;95.60;;;;;;7344449;19;112129;-91
2022/03/02 02:07:26;;;;;;;30.27;18.00;;;7.30;95.70;;;;;;7347490;19;110487;-89
2022/03/02 02:09:57;;;;;;;30.55;17.70;;;7.30;95.90;;;;;;7342989;19;111804;-90
2022/03/02 02:12:25;;;;;;;34.03;18.40;;;7.20;95.90;;;;;;7343261;19;110456;-90
2022/03/02 02:14:52;;;;;;;28.45;17.45;;;7.30;96.10;;;;;;7345394;19;111261;-90
2022/03/02 02:17:20;;;;;;;36.53;18.55;;;7.30;96.00;;;;;;7342023;19;110927;-91
2022/03/02 02:19:47;;;;;;;39.63;18.77;;;7.30;95.90;;;;;;7343978;19;112852;-90
2022/03/02 02:22:14;;;;;;;31.20;17.60;;;7.30;95.90;;;;;;7344270;19;111482;-90
2022/03/02 02:24:42;;;;;;;37.40;18.87;;;7.30;96.00;;;;;;7344636;19;111702;-89
2022/03/02 02:27:10;;;;;;;29.67;18.00;;;7.10;96.30;;;;;;7342732;19;110704;-90
2022/03/02 02:29:39;;;;;;;30.42;17.88;;;7.10;96.40;;;;;;7347554;19;111289;-89
2022/03/02 02:32:06;;;;;;;34.63;18.23;;;7.00;96.60;;;;;;7341837;19;110142;-89
2022/03/02 02:34:33;;;;;;;33.97;18.10;;;6.90;96.70;;;;;;7344782;19;111550;-90
2022/03/02 02:37:05;;;;;;;31.87;17.77;;;6.90;96.90;;;;;;7342442;19;110501;-90
2022/03/02 02:39:35;;;;;;;30.73;17.67;;;6.90;96.80;;;;;;7343990;19;110478;-91
2022/03/02 02:42:07;;;;;;;35.30;17.57;;;6.90;96.80;;;;;;7345044;19;111354;-90
2022/03/02 02:44:35;;;;;;;34.80;17.83;;;6.90;96.80;;;;;;7343834;19;113449;-90
2022/03/02 02:47:03;;;;;;;36.60;18.40;;;6.90;96.90;;;;;;7343286;19;110340;-90
2022/03/02 02:49:30;;;;;;;33.37;18.30;;;6.80;97.10;;;;;;7344646;19;111417;-90
2022/03/02 02:51:57;;;;;;;30.83;17.73;;;6.70;97.10;;;;;;7346689;19;111830;-89
2022/03/02 02:54:24;;;;;;;34.47;16.23;;;6.70;97.30;;;;;;7344316;19;111726;-90
2022/03/02 02:56:51;;;;;;;35.70;19.30;;;6.50;97.40;;;;;;7342603;19;112200;-90
2022/03/02 02:59:19;;;;;;;31.57;17.93;;;6.50;97.60;;;;;;7342038;19;110325;-90
2022/03/02 03:01:46;;;;;;;30.87;17.47;;;6.40;97.80;;;;;;7343974;19;111310;-91
2022/03/02 03:04:13;;;;;;;33.27;18.03;;;6.30;97.90;;;;;;7340720;19;111727;-90
2022/03/02 03:06:40;;;;;;;32.87;17.27;;;6.30;97.90;;;;;;7342970;19;111143;-90
2022/03/02 03:09:07;;;;;;;32.37;17.47;;;6.40;97.90;;;;;;7340630;19;111751;-89
2022/03/02 03:11:39;;;;;;;34.47;17.73;;;6.50;97.70;;;;;;7343733;19;111700;-90
2022/03/02 03:14:13;;;;;;;32.28;17.00;;;6.50;98.10;;;;;;7350479;19;110205;-89
2022/03/02 03:16:41;;;;;;;33.53;17.23;;;6.30;97.80;;;;;;7342084;19;112132;-90
2022/03/02 03:19:09;;;;;;;30.27;17.80;;;6.30;97.90;;;;;;7342788;19;111308;-90
2022/03/02 03:21:36;;;;;;;32.67;16.63;;;6.30;97.90;;;;;;7344059;19;110958;-90
2022/03/02 03:24:04;;;;;;;28.40;16.63;;;6.30;97.90;;;;;;7341879;19;111718;-90
2022/03/02 03:26:31;;;;;;;29.97;17.30;;;6.20;98.20;;;;;;7343966;19;110890;-90
2022/03/02 03:28:58;;;;;;;30.60;17.60;;;6.20;98.10;;;;;;7342778;19;110448;-89
2022/03/02 03:31:25;;;;;;;29.70;16.97;;;6.20;98.10;;;;;;7343491;19;111734;-89
2022/03/02 03:33:53;;;;;;;28.87;16.83;;;6.30;97.90;;;;;;7341340;19;110135;-90
2022/03/02 03:36:20;;;;;;;32.13;18.10;;;6.40;97.80;;;;;;7347186;19;110228;-89
2022/03/02 03:38:47;;;;;;;32.60;18.10;;;6.40;98.10;;;;;;7342976;19;110233;-90
2022/03/02 03:41:14;;;;;;;30.00;17.27;;;6.50;97.70;;;;;;7341426;19;111597;-89
2022/03/02 03:43:41;;;;;;;29.80;17.20;;;6.50;97.70;;;;;;7341410;19;111875;-89
2022/03/02 03:46:08;;;;;;;30.67;17.00;;;6.40;97.70;;;;;;7341240;19;111652;-89
2022/03/02 03:48:35;;;;;;;29.20;17.07;;;6.40;97.70;;;;;;7340323;19;111635;-89
2022/03/02 03:51:02;;;;;;;28.60;17.17;;;6.30;97.70;;;;;;7340206;19;112314;-89
2022/03/02 03:53:30;;;;;;;31.10;16.83;;;6.30;97.80;;;;;;7338900;19;110728;-90
2022/03/02 03:55:57;;;;;;;30.83;17.33;;;6.20;97.90;;;;;;7345051;19;109886;-89
2022/03/02 03:58:24;;;;;;;31.83;17.83;;;6.20;97.90;;;;;;7337837;19;111755;-89
2022/03/02 04:00:51;;;;;;;30.83;16.83;;;6.10;98.10;;;;;;7342015;19;110463;-89
2022/03/02 04:03:18;;;;;;;32.47;16.47;;;6.10;98.20;;;;;;7341784;19;111656;-90
2022/03/02 04:05:45;;;;;;;28.00;16.77;;;6.10;98.20;;;;;;7340434;19;110501;-89
2022/03/02 04:08:12;;;;;;;29.03;15.80;;;6.10;98.10;;;;;;7341419;19;111357;-89
2022/03/02 04:10:39;;;;;;;36.60;16.83;;;6.20;98.10;;;;;;7339995;19;111762;-89
2022/03/02 04:13:06;;;;;;;28.67;16.23;;;6.20;97.90;;;;;;7346399;19;110323;-90
2022/03/02 04:15:34;;;;;;;30.57;16.37;;;6.20;97.90;;;;;;7348834;19;111452;-88
2022/03/02 04:18:01;;;;;;;30.63;16.33;;;6.20;97.90;;;;;;7351416;19;112064;-89
2022/03/02 04:20:28;;;;;;;30.10;17.07;;;6.20;97.80;;;;;;7346050;19;113703;-90
2022/03/02 04:22:55;;;;;;;31.10;16.00;;;6.10;97.80;;;;;;7347640;19;111636;-90
2022/03/02 04:25:22;;;;;;;32.07;17.00;;;6.10;97.90;;;;;;7347564;19;110421;-88
2022/03/02 04:27:49;;;;;;;34.00;16.47;;;6.10;97.80;;;;;;7349053;19;110342;-89
2022/03/02 04:30:17;;;;;;;32.70;16.23;;;6.10;97.80;;;;;;7345754;19;113492;-89
2022/03/02 04:32:44;;;;;;;29.73;15.80;;;6.10;97.80;;;;;;7347954;19;110823;-90
2022/03/02 04:35:12;;;;;;;29.57;16.80;;;6.10;97.70;;;;;;7347458;19;111515;-89
2022/03/02 04:37:41;;;;;;;28.33;15.93;;;6.20;97.80;;;;;;7345024;19;110546;-90
2022/03/02 04:40:10;;;;;;;29.00;15.90;;;6.20;97.70;;;;;;7353199;19;111431;-90
2022/03/02 04:42:38;;;;;;;31.30;17.47;;;6.20;97.70;;;;;;7345832;19;111706;-89
2022/03/02 04:45:06;;;;;;;26.93;15.93;;;6.10;97.70;;;;;;7347376;19;110231;-89
2022/03/02 04:47:33;;;;;;;33.40;16.53;;;6.10;97.60;;;;;;7345787;19;110314;-89
2022/03/02 04:50:01;;;;;;;29.50;16.10;;;6.00;97.60;;;;;;7345942;19;110803;-89
2022/03/02 04:52:28;;;;;;;31.83;16.87;;;6.00;97.70;;;;;;7347529;19;110866;-89
2022/03/02 04:55:07;;;;;;;29.70;16.50;;;6.00;97.80;;;;;;7348231;19;111421;-89
2022/03/02 04:57:35;;;;;;;30.93;16.63;;;6.00;97.70;;;;;;7346304;19;112200;-89
2022/03/02 05:00:09;;;;;;;37.00;16.13;;;5.90;97.80;;;;;;7346130;19;110192;-89
2022/03/02 05:02:36;;;;;;;30.70;16.57;;;5.90;97.80;;;;;;7351822;19;111355;-90
2022/03/02 05:05:09;;;;;;;27.77;16.27;;;5.90;97.80;;;;;;7347186;19;110226;-90
2022/03/02 05:07:36;;;;;;;25.60;16.97;;;5.80;98.00;;;;;;7345086;19;110555;-90
2022/03/02 05:10:06;;;;;;;32.37;16.20;;;5.70;98.10;;;;;;7344034;19;112205;-90
2022/03/02 05:12:33;;;;;;;27.47;15.10;;;5.70;98.10;;;;;;7347568;19;109775;-89
2022/03/02 05:15:00;;;;;;;31.13;16.17;;;5.60;98.20;;;;;;7348139;19;110964;-90
2022/03/02 05:17:27;;;;;;;28.80;15.70;;;5.50;98.30;;;;;;7343129;19;110590;-89
2022/03/02 05:19:55;;;;;;;30.03;15.80;;;5.50;98.40;;;;;;7344297;19;111809;-90
2022/03/02 05:22:22;;;;;;;27.63;16.83;;;5.50;98.50;;;;;;7346671;19;110393;-90
2022/03/02 05:24:49;;;;;;;28.17;16.13;;;5.40;98.50;;;;;;7353216;19;111758;-90
2022/03/02 05:27:16;;;;;;;28.23;16.03;;;5.40;98.70;;;;;;7345037;19;110760;-91
2022/03/02 05:29:43;;;;;;;30.63;16.10;;;5.30;98.70;;;;;;7345438;19;111809;-90
2022/03/02 05:32:11;;;;;;;32.50;17.07;;;5.30;98.70;;;;;;7346378;19;110209;-90
2022/03/02 05:34:38;;;;;;;28.90;16.13;;;5.30;98.70;;;;;;7345844;19;111441;-90
2022/03/02 05:37:05;;;;;;;32.40;15.70;;;5.40;98.70;;;;;;7346352;19;111683;-90
2022/03/02 05:39:32;;;;;;;31.03;16.73;;;5.50;98.40;;;;;;7345780;19;110099;-90
2022/03/02 05:41:59;;;;;;;30.73;16.37;;;5.40;98.50;;;;;;7345065;19;111114;-90
2022/03/02 05:44:27;;;;;;;29.77;16.57;;;5.40;98.60;;;;;;7348912;19;111397;-90
2022/03/02 05:46:54;;;;;;;28.60;15.50;;;5.50;98.60;;;;;;7346873;19;114459;-89
2022/03/02 05:49:21;;;;;;;26.87;15.80;;;5.50;98.40;;;;;;7345025;19;110864;-90
2022/03/02 05:51:49;;;;;;;26.03;16.00;;;5.70;98.20;;;;;;7346754;19;109836;-90
2022/03/02 05:54:16;;;;;;;31.67;16.03;;;5.80;98.10;;;;;;7342972;19;113326;-90
2022/03/02 05:56:44;;;;;;;34.03;16.63;;;5.80;97.90;;;;;;7346377;19;111885;-89
2022/03/02 05:59:12;;;;;;;28.83;16.40;;;5.90;97.80;;;;;;7342123;19;110210;-90
2022/03/02 06:01:41;;;;;;;31.50;15.90;;;5.80;97.70;;;;;;7344764;19;112081;-90
2022/03/02 06:04:08;;;;;;;27.53;16.23;;;5.80;97.70;;;;;;7344569;19;111923;-90
2022/03/02 06:06:40;;;;;;;32.20;16.10;;;5.80;97.70;;;;;;7349815;19;110550;-90
2022/03/02 06:09:09;;;;;;;29.63;15.47;;;5.80;97.70;;;;;;7345155;19;111210;-94
2022/03/02 06:11:38;;;;;;;28.10;15.73;;;5.70;97.70;;;;;;7341812;19;110123;-94
2022/03/02 06:14:06;;;;;;;24.70;15.17;;;5.80;97.90;;;;;;7343637;19;113336;-94
2022/03/02 06:16:33;;;;;;;25.70;15.13;;;5.80;97.70;;;;;;7346913;19;111660;-93
2022/03/02 06:19:02;;;;;;;28.17;15.97;;;5.80;97.70;;;;;;7343712;19;110583;-93
2022/03/02 06:21:30;;;;;;;31.73;16.13;;;5.80;97.60;;;;;;7347467;19;112026;-94
2022/03/02 06:23:58;;;;;;;29.97;16.20;;;5.60;97.60;;;;;;7345319;19;110735;-94
2022/03/02 06:26:26;;;;;;;32.70;16.83;;;5.60;97.70;;;;;;7345697;19;110502;-94
2022/03/02 06:28:53;;;;;;;28.43;15.97;;;5.40;97.70;;;;;;7353100;19;110855;-93
2022/03/02 06:31:21;;;;;;;32.67;16.57;;;5.40;97.90;;;;;;7346178;19;110389;-93
2022/03/02 06:33:48;;;;;;;30.20;16.03;;;5.30;97.80;;;;;;7339485;19;112319;-94
2022/03/02 06:36:16;;;;;;;30.93;16.73;;;5.30;98.20;;;;;;7343803;19;110491;-93
2022/03/02 06:38:43;;;;;;;35.63;17.17;;;5.10;98.10;;;;;;7342241;19;110088;-93
2022/03/02 06:41:27;;;;;;;34.13;16.67;;;5.00;98.50;;;;;;7347275;19;111389;-94
2022/03/02 06:44:26;;;;;;;31.03;16.30;;;4.80;98.90;;;;;;7343523;19;111792;-93
2022/03/02 06:47:02;;;;;;;31.23;15.40;;;4.80;99.00;;;;;;7342966;19;110535;-94
2022/03/02 06:49:58;;;;;;;31.20;16.93;;;4.70;99.00;;;;;;7345920;19;111600;-94
2022/03/02 06:52:43;;;;;;;30.23;16.23;;;4.60;99.10;;;;;;7351845;19;111758;-94
2022/03/02 06:55:16;;;;;;;30.13;16.00;;;4.60;99.20;;;;;;7343737;19;111415;-94
2022/03/02 06:57:54;;;;;;;29.63;15.57;;;4.40;99.40;;;;;;7347775;19;111065;-92
2022/03/02 07:00:23;;;;;;;28.83;16.27;;;4.40;99.60;;;;;;7342293;19;109951;-91
2022/03/02 07:03:10;;;;;;;29.10;15.80;;;4.40;99.50;;;;;;7342680;19;113121;-96
2022/03/02 07:05:39;;;;;;;31.15;16.40;;;4.50;99.90;;;;;;7344348;19;111877;-94
2022/03/02 07:08:08;;;;;;;28.97;15.87;;;4.30;99.70;;;;;;7345683;19;111272;-93
2022/03/02 07:10:36;;;;;;;29.00;16.77;;;4.40;99.60;;;;;;7340795;19;112361;-94
2022/03/02 07:13:06;;;;;;;30.50;16.20;;;4.40;99.40;;;;;;7343119;19;110928;-92
2022/03/02 07:15:34;;;;;;;27.40;16.00;;;4.30;99.60;;;;;;7346051;19;110658;-94
2022/03/02 07:18:04;;;;;;;26.27;15.63;;;4.40;99.50;;;;;;7341004;19;110561;-93
2022/03/02 07:20:33;;;;;;;30.90;16.20;;;4.40;99.50;;;;;;7341832;19;110864;-93
2022/03/02 07:23:01;;;;;;;28.80;16.27;;;4.40;99.50;;;;;;7344905;19;111513;-94
2022/03/02 07:25:33;;;;;;;31.50;15.83;;;4.50;99.50;;;;;;7344067;19;112170;-92
2022/03/02 07:28:01;;;;;;;28.33;15.67;;;4.60;99.30;;;;;;7342890;19;110808;-93
2022/03/02 07:30:28;;;;;;;31.40;15.07;;;4.70;99.20;;;;;;7343525;19;112839;-94
2022/03/02 07:33:00;;;;;;;27.90;15.00;;;4.70;99.20;;;;;;7340571;19;110689;-94
2022/03/02 07:35:31;;;;;;;29.30;16.07;;;4.60;99.40;;;;;;7342579;19;111636;-93
2022/03/02 07:37:59;;;;;;;33.40;16.53;;;4.60;99.40;;;;;;7347010;19;110678;-93
2022/03/02 07:40:26;;;;;;;31.30;15.87;;;4.60;99.60;;;;;;7343665;19;110045;-94
2022/03/02 07:42:53;;;;;;;28.07;15.33;;;4.70;99.50;;;;;;7343593;19;110597;-93
2022/03/02 07:45:21;;;;;;;28.07;15.10;;;4.80;99.30;;;;;;7346873;19;111582;-95
2022/03/02 07:47:48;;;;;;;27.03;15.10;;;4.90;99.40;;;;;;7352801;19;109953;-93
2022/03/02 07:50:16;;;;;;;26.90;15.67;;;5.00;99.20;;;;;;7348264;19;111789;-94
2022/03/02 07:52:48;;;;;;;28.30;15.17;;;5.10;99.20;;;;;;7351107;19;111504;-92
2022/03/02 07:55:17;;;;;;;30.57;16.03;;;5.30;99.00;;;;;;7348721;19;110956;-94
2022/03/02 07:57:50;;;;;;;27.40;14.67;;;5.40;98.90;;;;;;7356627;19;110793;-93
2022/03/02 08:00:17;;;;;;;27.23;15.03;;;5.60;98.70;;;;;;7350346;19;110033;-94
2022/03/02 08:02:47;;;;;;;33.63;16.00;;;5.70;98.60;;;;;;7347036;19;111432;-95
2022/03/02 08:05:16;;;;;;;29.33;14.67;;;5.90;98.40;;;;;;7351702;19;112467;-94
2022/03/02 08:07:44;;;;;;;29.03;15.60;;;6.00;98.10;;;;;;7349364;19;110297;-93
2022/03/02 08:10:15;;;;;;;29.07;15.33;;;6.10;97.80;;;;;;7349898;19;110002;-96
2022/03/02 08:12:42;;;;;;;28.60;15.97;;;6.20;97.90;;;;;;7352154;19;112138;-95
2022/03/02 08:15:10;;;;;;;30.97;15.97;;;6.30;97.90;;;;;;7351148;19;110291;-94
2022/03/02 08:17:38;;;;;;;33.63;16.03;;;6.40;97.80;;;;;;7354168;19;110399;-95
2022/03/02 08:20:06;;;;;;;28.40;15.77;;;6.40;97.70;;;;;;7363415;19;109924;-96
2022/03/02 08:22:35;;;;;;;30.20;16.37;;;6.50;97.50;;;;;;7353886;19;109834;-95
2022/03/02 08:25:10;;;;;;;28.57;15.90;;;6.50;97.50;;;;;;7350963;19;111018;-92
2022/03/02 08:27:43;;;;;;;28.80;15.60;;;6.60;97.50;;;;;;7348306;19;113060;-93
2022/03/02 08:30:12;;;;;;;30.57;15.33;;;6.60;97.30;;;;;;7347409;19;111136;-93
2022/03/02 08:32:47;;;;;;;31.53;15.10;;;6.60;97.30;;;;;;7345881;19;111913;-92
2022/03/02 08:35:16;;;;;;;29.27;15.03;;;6.50;97.20;;;;;;7348104;19;109726;-91
2022/03/02 08:37:43;;;;;;;27.57;15.10;;;6.50;97.40;;;;;;7348140;19;110416;-93
2022/03/02 08:40:12;;;;;;;32.30;15.93;;;6.60;97.50;;;;;;7345962;19;111146;-90
2022/03/02 08:42:39;;;;;;;24.97;15.20;;;6.70;97.40;;;;;;7354031;19;111607;-90
2022/03/02 08:45:08;;;;;;;28.67;15.43;;;6.70;97.30;;;;;;7347919;19;111965;-90
2022/03/02 08:47:35;;;;;;;32.73;16.10;;;6.90;97.40;;;;;;7347090;19;110336;-90
2022/03/02 08:50:05;;;;;;;27.63;14.47;;;6.90;97.30;;;;;;7349006;19;111235;-90
2022/03/02 08:52:34;;;;;;;32.67;15.43;;;7.00;97.20;;;;;;7348794;19;111812;-90
2022/03/02 08:55:09;;;;;;;28.43;16.13;;;7.10;97.10;;;;;;7347498;19;110171;-89
2022/03/02 08:57:42;;;;;;;23.23;15.43;;;7.10;96.90;;;;;;7346674;19;111444;-90
2022/03/02 09:00:11;;;;;;;35.00;14.63;;;7.20;96.90;;;;;;7345061;19;112084;-91
2022/03/02 09:02:40;;;;;;;30.63;14.53;;;7.30;97.00;;;;;;7347269;19;111063;-90
2022/03/02 09:05:08;;;;;;;27.83;15.23;;;7.40;96.70;;;;;;7351152;19;111799;-90
2022/03/02 09:07:35;;;;;;;24.65;14.43;;;7.50;96.70;;;;;;7344767;19;110132;-89
2022/03/02 09:10:03;;;;;;;28.50;15.00;;;7.60;96.30;;;;;;7344156;19;110269;-91
2022/03/02 09:12:51;;;;;;;29.55;14.80;;;7.70;96.20;;;;;;7350139;19;112301;-92
2022/03/02 09:15:19;;;;;;;29.38;14.40;;;7.70;95.90;;;;;;7345788;19;113008;-92
2022/03/02 09:17:46;;;;;;;24.58;14.70;;;7.80;95.70;;;;;;7346120;19;111037;-91
2022/03/02 09:20:13;;;;;;;26.10;13.35;;;7.90;95.40;;;;;;7343334;19;114448;-88
2022/03/02 09:22:41;;;;;;;23.27;13.50;;;7.90;95.20;;;;;;7344465;19;110471;-88
2022/03/02 09:25:09;;;;;;;25.13;13.25;;;8.10;95.10;;;;;;7340677;19;111463;-88
2022/03/02 09:27:36;;;;;;;25.02;13.00;;;8.10;95.00;;;;;;7349115;19;110718;-86
2022/03/02 09:30:07;;;;;;;26.60;13.32;;;8.30;95.20;;;;;;7343973;19;110164;-89
2022/03/02 09:32:36;;;;;;;22.60;14.18;;;8.40;95.20;;;;;;7339186;19;112103;-88
2022/03/02 09:35:03;;;;;;;20.52;13.00;;;8.50;94.40;;;;;;7341111;19;110539;-88
2022/03/02 09:37:37;;;;;;;23.52;13.25;;;8.60;94.60;;;;;;7339970;19;110963;-87
2022/03/02 09:40:05;;;;;;;26.90;13.38;;;8.70;94.50;;;;;;7338910;19;111252;-87
2022/03/02 09:42:40;;;;;;;25.60;12.23;;;8.80;94.10;;;;;;7341793;19;110492;-89
2022/03/02 09:45:10;;;;;;;25.38;13.45;;;8.80;93.50;;;;;;7338317;19;111430;-91
2022/03/02 09:47:43;;;;;;;23.25;13.35;;;8.90;93.80;;;;;;7337762;19;112219;-90
2022/03/02 09:50:13;;;;;;;24.25;13.40;;;9.00;93.60;;;;;;7343663;19;110617;-88
2022/03/02 09:52:45;;;;;;;27.83;13.05;;;9.10;93.30;;;;;;7340156;19;112343;-88
2022/03/02 09:55:21;;;;;;;26.52;12.98;;;9.20;93.70;;;;;;7340527;19;109982;-89
2022/03/02 09:57:54;;;;;;;25.73;11.80;;;9.40;93.60;;;;;;7338183;19;111383;-88
2022/03/02 10:00:23;;;;;;;20.27;11.55;;;9.50;92.90;;;;;;7345447;19;114293;-88
2022/03/02 10:02:56;;;;;;;20.85;12.40;;;9.60;91.90;;;;;;7344621;19;110809;-92
2022/03/02 10:06:20;;;;;;;18.23;11.52;;;9.60;91.80;;;;;;7342264;19;111052;-90
2022/03/02 10:09:02;;;;;;;21.17;11.57;;;9.70;91.60;;;;;;7334571;19;111034;-88
2022/03/02 10:11:34;;;;;;;21.50;11.02;;;9.80;91.30;;;;;;7345229;19;110169;-88
2022/03/02 10:14:01;;;;;;;31.08;11.32;;;9.90;91.80;;;;;;7338458;19;111375;-86
2022/03/02 10:16:29;;;;;;;18.85;11.02;;;10.00;91.10;;;;;;7336818;19;110409;-87
2022/03/02 10:19:02;;;;;;;19.08;10.68;;;10.10;90.60;;;;;;7336924;19;112706;-88
2022/03/02 10:21:32;;;;;;;17.67;10.15;;;10.00;88.30;;;;;;7337459;19;112264;-87
2022/03/02 10:24:03;;;;;;;17.52;10.25;;;10.10;90.00;;;;;;7339528;19;111053;-87
2022/03/02 10:26:34;;;;;;;22.80;10.18;;;10.20;88.40;;;;;;7339684;19;111764;-87
2022/03/02 10:29:12;;;;;;;18.05;10.30;;;10.20;89.10;;;;;;7337896;19;111564;-87
2022/03/02 10:31:42;;;;;;;18.75;11.52;;;10.30;87.50;;;;;;7340921;19;112703;-89
2022/03/02 10:34:33;;;;;;;15.75;10.00;;;10.30;87.80;;;;;;7343624;19;111609;-89
2022/03/02 10:37:15;;;;;;;20.13;9.85;;;10.40;84.20;;;;;;7339264;19;110187;-88
2022/03/02 10:39:51;;;;;;;20.23;10.88;;;10.50;88.40;;;;;;7344438;19;111314;-89
2022/03/02 10:42:28;;;;;;;19.48;9.50;;;10.60;87.00;;;;;;7336002;19;111981;-87
2022/03/02 10:45:14;;;;;;;23.35;10.48;;;10.70;85.80;;;;;;7337675;19;109092;-90
2022/03/02 10:47:55;;;;;;;24.33;10.85;;;10.80;84.10;;;;;;7342033;19;110097;-92
2022/03/02 10:50:28;;;;;;;17.45;10.30;;;10.80;83.80;;;;;;7340167;19;112299;-92
2022/03/02 10:53:17;;;;;;;;;;;;;;;;;;;;;
2022/03/02 10:56:04;;;;;;;18.13;9.15;;;11.00;83.20;;;;;;7344157;19;111158;-90
2022/03/02 10:58:31;;;;;;;15.68;9.57;;;11.00;81.80;;;;;;7348636;19;109644;-89
2022/03/02 11:01:02;;;;;;;18.02;9.60;;;11.10;82.10;;;;;;7342028;19;108403;-89
2022/03/02 11:03:37;;;;;;;16.30;10.10;;;11.20;81.60;;;;;;7343031;19;109819;-89
2022/03/02 11:06:06;;;;;;;12.95;9.02;;;11.30;80.90;;;;;;7341449;19;112979;-92
2022/03/02 11:08:35;;;;;;;17.55;9.30;;;11.30;80.60;;;;;;7340480;19;111436;-88
2022/03/02 11:11:06;;;;;;;22.58;9.00;;;11.30;80.40;;;;;;7339142;19;109598;-91
2022/03/02 11:13:33;;;;;;;22.30;9.15;;;11.40;79.60;;;;;;7343898;19;110135;-91
2022/03/02 11:16:03;;;;;;;15.20;8.75;;;11.40;77.80;;;;;;7345854;19;108524;-92
2022/03/02 11:18:40;;;;;;;32.80;9.73;;;11.40;77.50;;;;;;7341680;19;110376;-91
2022/03/02 11:21:17;;;;;;;15.43;8.68;;;11.50;78.60;;;;;;7348846;19;110661;-90
2022/03/02 11:24:04;;;;;;;13.10;8.70;;;11.60;79.10;;;;;;7345132;19;109455;-90
2022/03/02 11:26:34;;;;;;;19.98;8.65;;;11.70;78.40;;;;;;7346647;19;109447;-94
2022/03/02 11:29:06;;;;;;;18.77;9.30;;;11.70;78.30;;;;;;7346421;19;109345;-90
2022/03/02 11:31:45;;;;;;;13.20;8.35;;;11.80;78.40;;;;;;7340718;19;110095;-90
2022/03/02 11:34:17;;;;;;;10.65;8.60;;;11.90;75.80;;;;;;7343811;19;110101;-90
2022/03/02 11:36:48;;;;;;;11.77;8.07;;;12.00;77.10;;;;;;7337804;19;109019;-91
2022/03/02 11:39:19;;;;;;;12.70;8.35;;;12.20;77.30;;;;;;7333014;19;109612;-89
2022/03/02 11:41:50;;;;;;;16.92;8.57;;;12.30;76.00;;;;;;7332800;19;110097;-89
2022/03/02 11:44:34;;;;;;;13.38;8.27;;;12.40;75.40;;;;;;7344721;19;108428;-88
2022/03/02 11:47:08;;;;;;;12.27;7.70;;;12.40;71.80;;;;;;7340950;19;112625;-89
2022/03/02 11:49:40;;;;;;;13.13;8.10;;;12.50;72.10;;;;;;7342398;19;108510;-87
2022/03/02 11:52:14;;;;;;;15.65;8.43;;;12.60;73.40;;;;;;7341490;19;108748;-89
2022/03/02 11:54:56;;;;;;;8.88;6.97;;;12.80;72.00;;;;;;7342042;19;110599;-88
2022/03/02 11:57:26;;;;;;;11.20;7.32;;;13.00;73.90;;;;;;7338181;19;111575;-90
2022/03/02 12:00:09;;;;;;;9.55;7.40;;;13.10;70.50;;;;;;7342001;19;109935;-88
2022/03/02 12:02:48;;;;;;;11.80;8.05;;;13.30;69.00;;;;;;7340789;19;109177;-89
2022/03/02 12:05:18;;;;;;;11.30;7.95;;;13.40;69.50;;;;;;7339658;19;111250;-89
2022/03/02 12:07:48;;;;;;;10.05;8.20;;;13.50;68.90;;;;;;7347818;19;112095;-89
2022/03/02 12:10:29;;;;;;;17.67;9.43;;;13.60;68.00;;;;;;7338942;19;108376;-89
2022/03/02 12:12:57;;;;;;;17.23;10.95;;;13.70;69.20;;;;;;7343133;19;109199;-88
2022/03/02 12:15:41;;;;;;;15.57;11.25;;;13.90;66.10;;;;;;7340576;19;111193;-88
2022/03/02 12:18:10;;;;;;;17.02;11.98;;;13.90;61.50;;;;;;7337340;19;111736;-89
2022/03/02 12:20:52;;;;;;;21.75;11.45;;;13.90;65.60;;;;;;7338338;19;111981;-89
2022/03/02 12:23:28;;;;;;;15.02;9.70;;;14.10;64.30;;;;;;7337941;19;112441;-89
2022/03/02 12:25:59;;;;;;;11.57;8.10;;;14.20;63.10;;;;;;7339157;19;111608;-90
2022/03/02 12:28:26;;;;;;;23.48;11.07;;;14.40;63.40;;;;;;7346709;19;108375;-89
2022/03/02 12:30:53;;;;;;;13.00;9.60;;;14.40;62.40;;;;;;7337738;19;109953;-88
2022/03/02 12:33:21;;;;;;;13.90;8.90;;;14.40;62.10;;;;;;7346828;19;109017;-88
2022/03/02 12:35:49;;;;;;;16.35;9.35;;;14.50;61.80;;;;;;7347874;19;111969;-89
2022/03/02 12:38:17;;;;;;;15.30;9.38;;;14.60;59.30;;;;;;7347722;19;108976;-89
2022/03/02 12:40:46;;;;;;;10.60;8.23;;;14.60;59.70;;;;;;7349343;19;110135;-89
2022/03/02 12:43:16;;;;;;;12.80;8.82;;;14.70;59.80;;;;;;7348027;19;112701;-89